sensor_id;sensor_type;location;lat;lon;timestamp;temperature;humidity
56123;DHT22;42426;46.104;19.656;2022-07-26T00:01:34;640.70;1203.20
56123;DHT22;42426;46.104;19.656;2022-07-26T00:04:00;640.70;1203.20
56123;DHT22;42426;46.104;19.656;2022-07-26T00:06:27;640.70;1203.20
56123;DHT22;42426;46.104;19.656;2022-07-26T00:08:53;640.70;1203.20
56123;DHT22;42426;46.104;19.656;2022-07-26T00:11:19;640.70;1203.20
56123;DHT22;42426;46.104;19.656;2022-07-26T00:13:46;640.70;1203.20
56123;DHT22;42426;46.104;19.656;2022-07-26T00:16:12;640.70;1177.60
56123;DHT22;42426;46.104;19.656;2022-07-26T00:18:38;640.60;1203.20
56123;DHT22;42426;46.104;19.656;2022-07-26T00:21:04;640.70;1177.60
56123;DHT22;42426;46.104;19.656;2022-07-26T00:23:30;640.60;1177.60
56123;DHT22;42426;46.104;19.656;2022-07-26T00:25:55;640.50;1177.60
56123;DHT22;42426;46.104;19.656;2022-07-26T00:28:21;640.50;1177.60
56123;DHT22;42426;46.104;19.656;2022-07-26T00:30:49;640.50;1177.60
56123;DHT22;42426;46.104;19.656;2022-07-26T00:33:15;640.50;1152.00
56123;DHT22;42426;46.104;19.656;2022-07-26T00:35:41;640.50;1152.00
56123;DHT22;42426;46.104;19.656;2022-07-26T00:38:07;640.40;1152.00
56123;DHT22;42426;46.104;19.656;2022-07-26T00:40:32;640.40;1152.00
56123;DHT22;42426;46.104;19.656;2022-07-26T00:42:58;640.40;1152.00
56123;DHT22;42426;46.104;19.656;2022-07-26T00:45:24;640.40;1152.00
56123;DHT22;42426;46.104;19.656;2022-07-26T00:47:50;640.40;1152.00
56123;DHT22;42426;46.104;19.656;2022-07-26T00:50:17;640.40;1152.00
56123;DHT22;42426;46.104;19.656;2022-07-26T00:52:45;640.30;1152.00
56123;DHT22;42426;46.104;19.656;2022-07-26T00:55:11;640.30;1126.40
56123;DHT22;42426;46.104;19.656;2022-07-26T00:57:38;640.30;1152.00
56123;DHT22;42426;46.104;19.656;2022-07-26T01:00:06;640.30;1126.40
56123;DHT22;42426;46.104;19.656;2022-07-26T01:02:38;640.30;1126.40
56123;DHT22;42426;46.104;19.656;2022-07-26T01:05:04;640.30;1126.40
56123;DHT22;42426;46.104;19.656;2022-07-26T01:07:30;640.30;1126.40
56123;DHT22;42426;46.104;19.656;2022-07-26T01:09:57;640.20;1152.00
56123;DHT22;42426;46.104;19.656;2022-07-26T01:12:23;640.20;1152.00
56123;DHT22;42426;46.104;19.656;2022-07-26T01:14:48;640.10;1126.40
56123;DHT22;42426;46.104;19.656;2022-07-26T01:17:14;640.10;1126.40
56123;DHT22;42426;46.104;19.656;2022-07-26T01:19:40;640.10;1126.40
56123;DHT22;42426;46.104;19.656;2022-07-26T01:22:16;640.10;1126.40
56123;DHT22;42426;46.104;19.656;2022-07-26T01:24:42;640.00;1126.40
56123;DHT22;42426;46.104;19.656;2022-07-26T01:27:08;640.00;1126.40
56123;DHT22;42426;46.104;19.656;2022-07-26T01:29:34;640.00;1152.00
56123;DHT22;42426;46.104;19.656;2022-07-26T01:32:00;640.00;1152.00
56123;DHT22;42426;46.104;19.656;2022-07-26T01:34:27;615.30;1152.00
56123;DHT22;42426;46.104;19.656;2022-07-26T01:36:53;615.20;1152.00
56123;DHT22;42426;46.104;19.656;2022-07-26T01:39:20;615.20;1177.60
56123;DHT22;42426;46.104;19.656;2022-07-26T01:41:46;615.10;1177.60
56123;DHT22;42426;46.104;19.656;2022-07-26T01:44:12;615.10;1203.20
56123;DHT22;42426;46.104;19.656;2022-07-26T01:46:38;615.00;1203.20
56123;DHT22;42426;46.104;19.656;2022-07-26T01:49:04;614.90;1228.80
56123;DHT22;42426;46.104;19.656;2022-07-26T01:51:31;614.80;1254.40
56123;DHT22;42426;46.104;19.656;2022-07-26T01:53:59;614.70;1254.40
56123;DHT22;42426;46.104;19.656;2022-07-26T01:56:25;614.60;1254.40
56123;DHT22;42426;46.104;19.656;2022-07-26T01:58:51;614.60;1280.00
56123;DHT22;42426;46.104;19.656;2022-07-26T02:01:18;614.50;1280.00
56123;DHT22;42426;46.104;19.656;2022-07-26T02:03:44;614.50;1280.00
56123;DHT22;42426;46.104;19.656;2022-07-26T02:06:10;614.50;1280.00
56123;DHT22;42426;46.104;19.656;2022-07-26T02:08:35;614.40;1280.00
56123;DHT22;42426;46.104;19.656;2022-07-26T02:11:01;614.40;1305.60
56123;DHT22;42426;46.104;19.656;2022-07-26T02:13:33;614.40;1305.60
56123;DHT22;42426;46.104;19.656;2022-07-26T02:16:13;614.40;1305.60
56123;DHT22;42426;46.104;19.656;2022-07-26T02:18:39;614.40;1331.20
56123;DHT22;42426;46.104;19.656;2022-07-26T02:21:07;614.40;1305.60
56123;DHT22;42426;46.104;19.656;2022-07-26T02:23:34;614.40;1331.20
56123;DHT22;42426;46.104;19.656;2022-07-26T02:26:14;614.40;1331.20
56123;DHT22;42426;46.104;19.656;2022-07-26T02:28:39;589.70;1356.80
56123;DHT22;42426;46.104;19.656;2022-07-26T02:31:11;614.40;1331.20
56123;DHT22;42426;46.104;19.656;2022-07-26T02:33:37;589.70;1331.20
56123;DHT22;42426;46.104;19.656;2022-07-26T02:36:04;589.60;1331.20
56123;DHT22;42426;46.104;19.656;2022-07-26T02:38:30;589.60;1331.20
56123;DHT22;42426;46.104;19.656;2022-07-26T02:40:58;589.60;1331.20
56123;DHT22;42426;46.104;19.656;2022-07-26T02:43:24;589.60;1331.20
56123;DHT22;42426;46.104;19.656;2022-07-26T02:45:53;589.60;1356.80
56123;DHT22;42426;46.104;19.656;2022-07-26T02:48:19;589.60;1331.20
56123;DHT22;42426;46.104;19.656;2022-07-26T02:50:45;589.60;1356.80
56123;DHT22;42426;46.104;19.656;2022-07-26T02:53:11;589.60;1331.20
56123;DHT22;42426;46.104;19.656;2022-07-26T02:55:44;589.50;1331.20
56123;DHT22;42426;46.104;19.656;2022-07-26T02:58:10;589.50;1331.20
56123;DHT22;42426;46.104;19.656;2022-07-26T03:00:44;589.40;1331.20
56123;DHT22;42426;46.104;19.656;2022-07-26T03:03:09;589.40;1331.20
56123;DHT22;42426;46.104;19.656;2022-07-26T03:05:41;589.30;1331.20
56123;DHT22;42426;46.104;19.656;2022-07-26T03:08:07;589.30;1305.60
56123;DHT22;42426;46.104;19.656;2022-07-26T03:10:35;589.30;1331.20
56123;DHT22;42426;46.104;19.656;2022-07-26T03:13:01;589.30;1331.20
56123;DHT22;42426;46.104;19.656;2022-07-26T03:15:28;589.20;1305.60
56123;DHT22;42426;46.104;19.656;2022-07-26T03:17:54;589.20;1305.60
56123;DHT22;42426;46.104;19.656;2022-07-26T03:23:41;589.20;1280.00
56123;DHT22;42426;46.104;19.656;2022-07-26T03:26:07;589.30;1305.60
56123;DHT22;42426;46.104;19.656;2022-07-26T03:28:33;589.30;1305.60
56123;DHT22;42426;46.104;19.656;2022-07-26T03:31:00;589.40;1305.60
56123;DHT22;42426;46.104;19.656;2022-07-26T03:33:27;589.40;1305.60
56123;DHT22;42426;46.104;19.656;2022-07-26T03:35:53;589.40;1331.20
56123;DHT22;42426;46.104;19.656;2022-07-26T03:38:19;589.40;1305.60
56123;DHT22;42426;46.104;19.656;2022-07-26T03:40:45;589.30;1356.80
56123;DHT22;42426;46.104;19.656;2022-07-26T03:43:10;589.30;1331.20
56123;DHT22;42426;46.104;19.656;2022-07-26T03:45:36;589.30;1331.20
56123;DHT22;42426;46.104;19.656;2022-07-26T03:48:02;589.20;1331.20
56123;DHT22;42426;46.104;19.656;2022-07-26T03:50:28;589.20;1331.20
56123;DHT22;42426;46.104;19.656;2022-07-26T03:52:54;589.20;1356.80
56123;DHT22;42426;46.104;19.656;2022-07-26T03:55:19;589.20;1356.80
56123;DHT22;42426;46.104;19.656;2022-07-26T03:58:03;589.20;1356.80
56123;DHT22;42426;46.104;19.656;2022-07-26T04:00:29;589.20;1382.40
56123;DHT22;42426;46.104;19.656;2022-07-26T04:02:56;589.10;1356.80
56123;DHT22;42426;46.104;19.656;2022-07-26T04:05:22;589.10;1356.80
56123;DHT22;42426;46.104;19.656;2022-07-26T04:07:48;589.10;1356.80
56123;DHT22;42426;46.104;19.656;2022-07-26T04:10:13;589.10;1408.00
56123;DHT22;42426;46.104;19.656;2022-07-26T04:12:41;589.10;1382.40
56123;DHT22;42426;46.104;19.656;2022-07-26T04:15:08;589.10;1382.40
56123;DHT22;42426;46.104;19.656;2022-07-26T04:17:39;589.20;1382.40
56123;DHT22;42426;46.104;19.656;2022-07-26T04:20:06;589.20;1382.40
56123;DHT22;42426;46.104;19.656;2022-07-26T04:22:38;589.20;1382.40
56123;DHT22;42426;46.104;19.656;2022-07-26T04:25:05;589.20;1408.00
56123;DHT22;42426;46.104;19.656;2022-07-26T04:27:31;589.20;1408.00
56123;DHT22;42426;46.104;19.656;2022-07-26T04:29:57;589.20;1408.00
56123;DHT22;42426;46.104;19.656;2022-07-26T04:32:23;589.60;1408.00
56123;DHT22;42426;46.104;19.656;2022-07-26T04:35:09;589.20;1408.00
56123;DHT22;42426;46.104;19.656;2022-07-26T04:37:41;589.20;1433.60
56123;DHT22;42426;46.104;19.656;2022-07-26T04:40:08;589.30;1433.60
56123;DHT22;42426;46.104;19.656;2022-07-26T04:42:49;589.30;1433.60
56123;DHT22;42426;46.104;19.656;2022-07-26T04:45:16;589.40;1433.60
56123;DHT22;42426;46.104;19.656;2022-07-26T04:47:43;589.40;1433.60
56123;DHT22;42426;46.104;19.656;2022-07-26T04:53:16;589.60;1382.40
56123;DHT22;42426;46.104;19.656;2022-07-26T04:55:42;614.40;1382.40
56123;DHT22;42426;46.104;19.656;2022-07-26T04:58:36;614.40;1382.40
56123;DHT22;42426;46.104;19.656;2022-07-26T05:01:07;614.50;1382.40
56123;DHT22;42426;46.104;19.656;2022-07-26T05:03:33;614.50;1382.40
56123;DHT22;42426;46.104;19.656;2022-07-26T05:05:59;614.60;1356.80
56123;DHT22;42426;46.104;19.656;2022-07-26T05:08:25;614.80;1331.20
56123;DHT22;42426;46.104;19.656;2022-07-26T05:10:56;614.90;1305.60
56123;DHT22;42426;46.104;19.656;2022-07-26T05:13:22;615.00;1356.80
56123;DHT22;42426;46.104;19.656;2022-07-26T05:15:48;615.20;1305.60
56123;DHT22;42426;46.104;19.656;2022-07-26T05:18:15;615.30;1331.20
56123;DHT22;42426;46.104;19.656;2022-07-26T05:20:41;640.40;1254.40
56123;DHT22;42426;46.104;19.656;2022-07-26T05:23:16;640.30;1254.40
56123;DHT22;42426;46.104;19.656;2022-07-26T05:25:45;640.60;1280.00
56123;DHT22;42426;46.104;19.656;2022-07-26T05:28:27;640.70;1203.20
56123;DHT22;42426;46.104;19.656;2022-07-26T05:30:53;640.90;1228.80
56123;DHT22;42426;46.104;19.656;2022-07-26T05:33:20;640.90;1203.20
56123;DHT22;42426;46.104;19.656;2022-07-26T05:35:49;665.60;1228.80
56123;DHT22;42426;46.104;19.656;2022-07-26T05:44:50;666.00;1203.20
56123;DHT22;42426;46.104;19.656;2022-07-26T05:50:38;666.00;1203.20
56123;DHT22;42426;46.104;19.656;2022-07-26T06:00:14;666.10;1203.20
56123;DHT22;42426;46.104;19.656;2022-07-26T06:06:01;666.50;1152.00
56123;DHT22;42426;46.104;19.656;2022-07-26T07:22:31;768.00;1024.00
56123;DHT22;42426;46.104;19.656;2022-07-26T07:24:57;768.00;998.40
56123;DHT22;42426;46.104;19.656;2022-07-26T07:27:24;768.10;1049.60
56123;DHT22;42426;46.104;19.656;2022-07-26T07:29:49;743.30;998.40
56123;DHT22;42426;46.104;19.656;2022-07-26T07:32:15;743.20;1049.60
56123;DHT22;42426;46.104;19.656;2022-07-26T07:34:41;743.30;1049.60
56123;DHT22;42426;46.104;19.656;2022-07-26T07:37:07;743.20;1049.60
56123;DHT22;42426;46.104;19.656;2022-07-26T07:39:32;743.20;1049.60
56123;DHT22;42426;46.104;19.656;2022-07-26T07:41:58;743.20;1049.60
56123;DHT22;42426;46.104;19.656;2022-07-26T07:44:24;743.20;1049.60
56123;DHT22;42426;46.104;19.656;2022-07-26T07:46:50;768.00;1049.60
56123;DHT22;42426;46.104;19.656;2022-07-26T07:49:16;743.30;1049.60
56123;DHT22;42426;46.104;19.656;2022-07-26T07:51:41;768.20;1024.00
56123;DHT22;42426;46.104;19.656;2022-07-26T07:54:07;768.30;998.40
56123;DHT22;42426;46.104;19.656;2022-07-26T07:56:33;768.30;998.40
56123;DHT22;42426;46.104;19.656;2022-07-26T07:58:59;768.30;1024.00
56123;DHT22;42426;46.104;19.656;2022-07-26T08:58:34;819.30;870.40
56123;DHT22;42426;46.104;19.656;2022-07-26T09:01:09;794.40;870.40
56123;DHT22;42426;46.104;19.656;2022-07-26T09:03:38;819.20;844.80
56123;DHT22;42426;46.104;19.656;2022-07-26T09:06:17;794.40;870.40
56123;DHT22;42426;46.104;19.656;2022-07-26T09:08:45;794.40;870.40
56123;DHT22;42426;46.104;19.656;2022-07-26T09:14:37;819.30;870.40
56123;DHT22;42426;46.104;19.656;2022-07-26T09:20:19;819.30;844.80
56123;DHT22;42426;46.104;19.656;2022-07-26T09:26:07;794.50;819.20
56123;DHT22;42426;46.104;19.656;2022-07-26T09:28:33;819.20;819.20
56123;DHT22;42426;46.104;19.656;2022-07-26T09:31:01;819.20;870.40
56123;DHT22;42426;46.104;19.656;2022-07-26T09:33:49;819.20;896.00
56123;DHT22;42426;46.104;19.656;2022-07-26T09:36:16;794.50;844.80
56123;DHT22;42426;46.104;19.656;2022-07-26T09:38:45;819.20;896.00
56123;DHT22;42426;46.104;19.656;2022-07-26T09:41:34;819.20;819.20
56123;DHT22;42426;46.104;19.656;2022-07-26T09:44:05;819.30;819.20
56123;DHT22;42426;46.104;19.656;2022-07-26T09:46:32;819.40;819.20
56123;DHT22;42426;46.104;19.656;2022-07-26T09:49:16;819.50;844.80
56123;DHT22;42426;46.104;19.656;2022-07-26T09:51:45;819.50;844.80
56123;DHT22;42426;46.104;19.656;2022-07-26T09:54:33;819.70;819.20
56123;DHT22;42426;46.104;19.656;2022-07-26T09:57:00;819.70;819.20
56123;DHT22;42426;46.104;19.656;2022-07-26T09:59:27;819.70;819.20
56123;DHT22;42426;46.104;19.656;2022-07-26T10:01:55;819.80;844.80
56123;DHT22;42426;46.104;19.656;2022-07-26T10:04:22;819.90;819.20
56123;DHT22;42426;46.104;19.656;2022-07-26T10:06:49;820.00;844.80
56123;DHT22;42426;46.104;19.656;2022-07-26T10:09:16;820.00;819.20
56123;DHT22;42426;46.104;19.656;2022-07-26T10:11:53;820.10;819.20
56123;DHT22;42426;46.104;19.656;2022-07-26T10:17:37;844.80;844.80
56123;DHT22;42426;46.104;19.656;2022-07-26T10:20:09;844.90;844.80
56123;DHT22;42426;46.104;19.656;2022-07-26T10:22:44;844.80;870.40
56123;DHT22;42426;46.104;19.656;2022-07-26T10:33:02;820.00;819.20
56123;DHT22;42426;46.104;19.656;2022-07-26T10:38:05;820.00;819.20
56123;DHT22;42426;46.104;19.656;2022-07-26T10:40:31;820.10;819.20
56123;DHT22;42426;46.104;19.656;2022-07-26T10:54:04;845.30;870.40
56123;DHT22;42426;46.104;19.656;2022-07-26T11:00:17;845.10;870.40
56123;DHT22;42426;46.104;19.656;2022-07-26T11:02:47;844.90;844.80
56123;DHT22;42426;46.104;19.656;2022-07-26T11:05:15;844.90;844.80
56123;DHT22;42426;46.104;19.656;2022-07-26T11:07:54;844.80;870.40
56123;DHT22;42426;46.104;19.656;2022-07-26T11:10:25;844.90;844.80
56123;DHT22;42426;46.104;19.656;2022-07-26T11:13:01;844.90;870.40
56123;DHT22;42426;46.104;19.656;2022-07-26T11:15:38;845.10;844.80
56123;DHT22;42426;46.104;19.656;2022-07-26T11:18:16;845.30;844.80
56123;DHT22;42426;46.104;19.656;2022-07-26T11:20:44;845.30;870.40
56123;DHT22;42426;46.104;19.656;2022-07-26T11:23:32;845.30;870.40
56123;DHT22;42426;46.104;19.656;2022-07-26T11:26:02;845.10;870.40
56123;DHT22;42426;46.104;19.656;2022-07-26T11:28:28;845.20;870.40
56123;DHT22;42426;46.104;19.656;2022-07-26T11:31:00;845.30;844.80
56123;DHT22;42426;46.104;19.656;2022-07-26T11:33:41;845.10;870.40
56123;DHT22;42426;46.104;19.656;2022-07-26T11:36:07;845.30;870.40
56123;DHT22;42426;46.104;19.656;2022-07-26T11:41:17;845.50;819.20
56123;DHT22;42426;46.104;19.656;2022-07-26T11:43:42;845.50;819.20
56123;DHT22;42426;46.104;19.656;2022-07-26T11:46:08;845.50;819.20
56123;DHT22;42426;46.104;19.656;2022-07-26T11:48:34;845.70;844.80
56123;DHT22;42426;46.104;19.656;2022-07-26T11:51:19;870.40;819.20
56123;DHT22;42426;46.104;19.656;2022-07-26T11:53:46;870.40;819.20
56123;DHT22;42426;46.104;19.656;2022-07-26T11:56:19;845.50;819.20
56123;DHT22;42426;46.104;19.656;2022-07-26T11:58:47;870.50;819.20
56123;DHT22;42426;46.104;19.656;2022-07-26T12:01:17;870.40;819.20
56123;DHT22;42426;46.104;19.656;2022-07-26T12:03:45;870.40;819.20
56123;DHT22;42426;46.104;19.656;2022-07-26T12:06:17;845.70;844.80
56123;DHT22;42426;46.104;19.656;2022-07-26T12:08:48;845.70;819.20
56123;DHT22;42426;46.104;19.656;2022-07-26T12:11:16;845.70;819.20
56123;DHT22;42426;46.104;19.656;2022-07-26T12:16:44;870.50;819.20
56123;DHT22;42426;46.104;19.656;2022-07-26T12:19:26;870.50;793.60
56123;DHT22;42426;46.104;19.656;2022-07-26T12:22:15;845.70;819.20
56123;DHT22;42426;46.104;19.656;2022-07-26T12:27:13;845.70;844.80
56123;DHT22;42426;46.104;19.656;2022-07-26T12:29:42;845.70;793.60
56123;DHT22;42426;46.104;19.656;2022-07-26T12:32:09;845.70;793.60
56123;DHT22;42426;46.104;19.656;2022-07-26T12:34:37;870.50;793.60
56123;DHT22;42426;46.104;19.656;2022-07-26T12:37:16;870.60;793.60
56123;DHT22;42426;46.104;19.656;2022-07-26T12:40:01;870.60;793.60
56123;DHT22;42426;46.104;19.656;2022-07-26T12:42:36;870.70;819.20
56123;DHT22;42426;46.104;19.656;2022-07-26T13:17:06;870.40;896.00
56123;DHT22;42426;46.104;19.656;2022-07-26T13:19:33;845.70;921.60
56123;DHT22;42426;46.104;19.656;2022-07-26T13:22:00;845.60;896.00
56123;DHT22;42426;46.104;19.656;2022-07-26T13:24:28;845.60;921.60
56123;DHT22;42426;46.104;19.656;2022-07-26T13:26:54;845.70;921.60
56123;DHT22;42426;46.104;19.656;2022-07-26T13:29:20;845.60;921.60
56123;DHT22;42426;46.104;19.656;2022-07-26T13:31:47;870.40;921.60
56123;DHT22;42426;46.104;19.656;2022-07-26T13:34:15;845.70;972.80
56123;DHT22;42426;46.104;19.656;2022-07-26T13:39:24;845.10;998.40
56123;DHT22;42426;46.104;19.656;2022-07-26T13:41:50;820.00;998.40
56123;DHT22;42426;46.104;19.656;2022-07-26T13:44:34;819.80;1024.00
56123;DHT22;42426;46.104;19.656;2022-07-26T13:47:00;819.50;1024.00
56123;DHT22;42426;46.104;19.656;2022-07-26T13:52:48;794.40;1075.20
56123;DHT22;42426;46.104;19.656;2022-07-26T13:55:14;794.20;1100.80
56123;DHT22;42426;46.104;19.656;2022-07-26T13:57:47;794.10;1126.40
56123;DHT22;42426;46.104;19.656;2022-07-26T14:00:20;794.00;1152.00
56123;DHT22;42426;46.104;19.656;2022-07-26T14:02:45;793.90;1126.40
56123;DHT22;42426;46.104;19.656;2022-07-26T14:05:20;793.70;1152.00
56123;DHT22;42426;46.104;19.656;2022-07-26T14:07:46;768.80;1152.00
56123;DHT22;42426;46.104;19.656;2022-07-26T14:10:12;768.60;1177.60
56123;DHT22;42426;46.104;19.656;2022-07-26T14:12:43;768.50;1177.60
56123;DHT22;42426;46.104;19.656;2022-07-26T14:15:09;768.30;1203.20
56123;DHT22;42426;46.104;19.656;2022-07-26T14:17:35;768.10;1331.20
56123;DHT22;42426;46.104;19.656;2022-07-26T14:20:14;743.30;1331.20
56123;DHT22;42426;46.104;19.656;2022-07-26T14:22:41;743.20;1331.20
56123;DHT22;42426;46.104;19.656;2022-07-26T14:25:07;743.10;1331.20
56123;DHT22;42426;46.104;19.656;2022-07-26T14:27:33;743.00;1356.80
56123;DHT22;42426;46.104;19.656;2022-07-26T14:29:59;743.00;1331.20
56123;DHT22;42426;46.104;19.656;2022-07-26T14:32:24;742.90;1356.80
56123;DHT22;42426;46.104;19.656;2022-07-26T14:34:55;742.90;1331.20
56123;DHT22;42426;46.104;19.656;2022-07-26T14:37:21;742.90;1356.80
56123;DHT22;42426;46.104;19.656;2022-07-26T14:39:47;742.90;1356.80
56123;DHT22;42426;46.104;19.656;2022-07-26T14:42:15;742.80;1331.20
56123;DHT22;42426;46.104;19.656;2022-07-26T14:44:41;742.80;1331.20
56123;DHT22;42426;46.104;19.656;2022-07-26T14:47:06;742.80;1356.80
56123;DHT22;42426;46.104;19.656;2022-07-26T14:49:34;742.80;1331.20
56123;DHT22;42426;46.104;19.656;2022-07-26T14:52:00;742.80;1331.20
56123;DHT22;42426;46.104;19.656;2022-07-26T14:54:28;742.70;1331.20
56123;DHT22;42426;46.104;19.656;2022-07-26T14:56:53;742.70;1305.60
56123;DHT22;42426;46.104;19.656;2022-07-26T14:59:19;742.70;1305.60
56123;DHT22;42426;46.104;19.656;2022-07-26T15:01:50;742.60;1305.60
56123;DHT22;42426;46.104;19.656;2022-07-26T15:04:16;742.50;1305.60
56123;DHT22;42426;46.104;19.656;2022-07-26T15:06:42;742.50;1331.20
56123;DHT22;42426;46.104;19.656;2022-07-26T15:09:18;742.40;1331.20
56123;DHT22;42426;46.104;19.656;2022-07-26T15:11:44;717.70;1305.60
56123;DHT22;42426;46.104;19.656;2022-07-26T15:14:10;717.70;1280.00
56123;DHT22;42426;46.104;19.656;2022-07-26T15:16:36;717.70;1280.00
56123;DHT22;42426;46.104;19.656;2022-07-26T15:19:02;717.70;1305.60
56123;DHT22;42426;46.104;19.656;2022-07-26T15:21:29;717.70;1305.60
56123;DHT22;42426;46.104;19.656;2022-07-26T15:23:54;717.60;1331.20
56123;DHT22;42426;46.104;19.656;2022-07-26T15:26:20;717.60;1331.20
56123;DHT22;42426;46.104;19.656;2022-07-26T15:28:46;717.60;1331.20
56123;DHT22;42426;46.104;19.656;2022-07-26T15:31:12;717.60;1331.20
56123;DHT22;42426;46.104;19.656;2022-07-26T15:33:39;717.40;1356.80
56123;DHT22;42426;46.104;19.656;2022-07-26T15:36:10;717.50;1331.20
56123;DHT22;42426;46.104;19.656;2022-07-26T15:38:36;717.40;1356.80
56123;DHT22;42426;46.104;19.656;2022-07-26T15:41:03;717.30;1382.40
56123;DHT22;42426;46.104;19.656;2022-07-26T15:43:29;717.20;1382.40
56123;DHT22;42426;46.104;19.656;2022-07-26T15:45:54;717.10;1382.40
56123;DHT22;42426;46.104;19.656;2022-07-26T15:48:22;717.30;1382.40
56123;DHT22;42426;46.104;19.656;2022-07-26T15:50:48;717.30;1382.40
56123;DHT22;42426;46.104;19.656;2022-07-26T15:53:14;717.30;1382.40
56123;DHT22;42426;46.104;19.656;2022-07-26T15:55:41;717.30;1382.40
56123;DHT22;42426;46.104;19.656;2022-07-26T15:58:15;717.20;1408.00
56123;DHT22;42426;46.104;19.656;2022-07-26T16:00:41;717.20;1408.00
56123;DHT22;42426;46.104;19.656;2022-07-26T16:03:19;717.20;1408.00
56123;DHT22;42426;46.104;19.656;2022-07-26T16:05:45;717.20;1382.40
56123;DHT22;42426;46.104;19.656;2022-07-26T16:08:12;717.20;1408.00
56123;DHT22;42426;46.104;19.656;2022-07-26T16:10:38;717.20;1408.00
56123;DHT22;42426;46.104;19.656;2022-07-26T16:13:04;717.20;1408.00
56123;DHT22;42426;46.104;19.656;2022-07-26T16:15:35;717.10;1408.00
56123;DHT22;42426;46.104;19.656;2022-07-26T16:18:00;717.20;1408.00
56123;DHT22;42426;46.104;19.656;2022-07-26T16:20:26;717.20;1408.00
56123;DHT22;42426;46.104;19.656;2022-07-26T16:22:54;717.20;1408.00
56123;DHT22;42426;46.104;19.656;2022-07-26T16:25:20;717.20;1382.40
56123;DHT22;42426;46.104;19.656;2022-07-26T16:27:47;717.20;1382.40
56123;DHT22;42426;46.104;19.656;2022-07-26T16:30:14;717.10;1408.00
56123;DHT22;42426;46.104;19.656;2022-07-26T16:32:46;717.10;1408.00
56123;DHT22;42426;46.104;19.656;2022-07-26T16:37:38;717.10;1433.60
56123;DHT22;42426;46.104;19.656;2022-07-26T16:40:07;716.80;1433.60
56123;DHT22;42426;46.104;19.656;2022-07-26T16:42:36;716.90;1433.60
56123;DHT22;42426;46.104;19.656;2022-07-26T16:45:08;717.00;1433.60
56123;DHT22;42426;46.104;19.656;2022-07-26T16:47:34;717.00;1459.20
56123;DHT22;42426;46.104;19.656;2022-07-26T16:50:00;716.80;1459.20
56123;DHT22;42426;46.104;19.656;2022-07-26T16:52:25;716.90;1433.60
56123;DHT22;42426;46.104;19.656;2022-07-26T16:54:51;716.80;1433.60
56123;DHT22;42426;46.104;19.656;2022-07-26T16:57:19;716.90;1459.20
56123;DHT22;42426;46.104;19.656;2022-07-26T16:59:50;692.10;1459.20
56123;DHT22;42426;46.104;19.656;2022-07-26T17:02:16;692.00;1484.80
56123;DHT22;42426;46.104;19.656;2022-07-26T17:04:44;692.00;1484.80
56123;DHT22;42426;46.104;19.656;2022-07-26T17:07:09;692.10;1459.20
56123;DHT22;42426;46.104;19.656;2022-07-26T17:09:35;692.00;1484.80
56123;DHT22;42426;46.104;19.656;2022-07-26T17:12:01;716.80;1536.00
56123;DHT22;42426;46.104;19.656;2022-07-26T17:14:28;692.10;1510.40
56123;DHT22;42426;46.104;19.656;2022-07-26T17:16:53;716.80;1536.00
56123;DHT22;42426;46.104;19.656;2022-07-26T17:19:20;692.00;1510.40
56123;DHT22;42426;46.104;19.656;2022-07-26T17:21:46;691.90;1536.00
56123;DHT22;42426;46.104;19.656;2022-07-26T17:24:19;691.90;1510.40
56123;DHT22;42426;46.104;19.656;2022-07-26T17:26:44;691.70;1536.00
56123;DHT22;42426;46.104;19.656;2022-07-26T17:32:16;691.70;1536.00
56123;DHT22;42426;46.104;19.656;2022-07-26T17:42:36;691.70;1510.40
56123;DHT22;42426;46.104;19.656;2022-07-26T17:45:04;691.50;1510.40
56123;DHT22;42426;46.104;19.656;2022-07-26T17:47:30;691.50;1536.00
56123;DHT22;42426;46.104;19.656;2022-07-26T17:50:04;691.50;1510.40
56123;DHT22;42426;46.104;19.656;2022-07-26T17:52:30;691.30;1510.40
56123;DHT22;42426;46.104;19.656;2022-07-26T17:55:03;691.50;1510.40
56123;DHT22;42426;46.104;19.656;2022-07-26T17:57:28;691.50;1484.80
56123;DHT22;42426;46.104;19.656;2022-07-26T17:59:54;691.60;1510.40
56123;DHT22;42426;46.104;19.656;2022-07-26T18:02:22;691.50;1510.40
56123;DHT22;42426;46.104;19.656;2022-07-26T18:04:48;691.50;1510.40
56123;DHT22;42426;46.104;19.656;2022-07-26T18:07:14;691.60;1510.40
56123;DHT22;42426;46.104;19.656;2022-07-26T18:09:43;691.50;1536.00
56123;DHT22;42426;46.104;19.656;2022-07-26T18:12:09;691.30;1536.00
56123;DHT22;42426;46.104;19.656;2022-07-26T18:14:34;691.50;1536.00
56123;DHT22;42426;46.104;19.656;2022-07-26T18:17:00;691.60;1510.40
56123;DHT22;42426;46.104;19.656;2022-07-26T18:19:26;691.50;1510.40
56123;DHT22;42426;46.104;19.656;2022-07-26T18:21:55;691.60;1510.40
56123;DHT22;42426;46.104;19.656;2022-07-26T18:24:20;691.70;1484.80
56123;DHT22;42426;46.104;19.656;2022-07-26T18:26:46;691.70;1510.40
56123;DHT22;42426;46.104;19.656;2022-07-26T18:29:12;691.70;1484.80
56123;DHT22;42426;46.104;19.656;2022-07-26T18:31:39;691.60;1510.40
56123;DHT22;42426;46.104;19.656;2022-07-26T18:34:05;691.60;1536.00
56123;DHT22;42426;46.104;19.656;2022-07-26T18:36:31;691.60;1536.00
56123;DHT22;42426;46.104;19.656;2022-07-26T18:38:56;691.50;1536.00
56123;DHT22;42426;46.104;19.656;2022-07-26T18:41:22;691.50;1536.00
56123;DHT22;42426;46.104;19.656;2022-07-26T18:43:48;691.50;1536.00
56123;DHT22;42426;46.104;19.656;2022-07-26T18:46:14;691.50;1510.40
56123;DHT22;42426;46.104;19.656;2022-07-26T18:48:39;691.30;1561.60
56123;DHT22;42426;46.104;19.656;2022-07-26T18:51:05;691.30;1587.20
56123;DHT22;42426;46.104;19.656;2022-07-26T18:53:36;691.30;1536.00
56123;DHT22;42426;46.104;19.656;2022-07-26T18:56:02;691.40;1561.60
56123;DHT22;42426;46.104;19.656;2022-07-26T18:58:33;691.30;1561.60
56123;DHT22;42426;46.104;19.656;2022-07-26T19:00:59;691.20;1561.60